sensor_id;sensor_type;location;lat;lon;timestamp;temperature;humidity
5118;DHT22;2578;51.622;7.046;2023-03-07T00:02:21;3.90;1.00
5118;DHT22;2578;51.622;7.046;2023-03-07T00:04:46;3.90;1.00
5118;DHT22;2578;51.622;7.046;2023-03-07T00:07:13;4.00;1.00
5118;DHT22;2578;51.622;7.046;2023-03-07T00:09:38;4.00;1.00
5118;DHT22;2578;51.622;7.046;2023-03-07T00:12:04;4.10;1.00
5118;DHT22;2578;51.622;7.046;2023-03-07T00:14:30;4.10;1.00
5118;DHT22;2578;51.622;7.046;2023-03-07T00:16:56;4.10;1.00
5118;DHT22;2578;51.622;7.046;2023-03-07T00:21:47;4.10;1.00
5118;DHT22;2578;51.622;7.046;2023-03-07T00:24:13;4.10;1.00
5118;DHT22;2578;51.622;7.046;2023-03-07T00:26:38;4.10;1.00
5118;DHT22;2578;51.622;7.046;2023-03-07T00:29:05;4.10;1.00
5118;DHT22;2578;51.622;7.046;2023-03-07T00:31:32;4.10;1.00
5118;DHT22;2578;51.622;7.046;2023-03-07T00:33:58;4.10;1.00
5118;DHT22;2578;51.622;7.046;2023-03-07T00:36:24;4.10;1.00
5118;DHT22;2578;51.622;7.046;2023-03-07T00:38:50;4.10;1.00
5118;DHT22;2578;51.622;7.046;2023-03-07T00:41:18;4.20;1.00
5118;DHT22;2578;51.622;7.046;2023-03-07T00:43:44;4.10;1.00
5118;DHT22;2578;51.622;7.046;2023-03-07T00:46:12;4.20;1.00
5118;DHT22;2578;51.622;7.046;2023-03-07T00:48:39;4.10;1.00
5118;DHT22;2578;51.622;7.046;2023-03-07T00:51:07;4.20;1.00
5118;DHT22;2578;51.622;7.046;2023-03-07T00:53:34;4.20;1.00
5118;DHT22;2578;51.622;7.046;2023-03-07T00:56:03;4.20;1.00
5118;DHT22;2578;51.622;7.046;2023-03-07T00:58:32;4.20;1.00
5118;DHT22;2578;51.622;7.046;2023-03-07T01:00:58;4.20;1.00
5118;DHT22;2578;51.622;7.046;2023-03-07T01:03:25;4.10;1.00
5118;DHT22;2578;51.622;7.046;2023-03-07T01:05:51;4.10;1.00
5118;DHT22;2578;51.622;7.046;2023-03-07T01:08:18;4.10;1.00
5118;DHT22;2578;51.622;7.046;2023-03-07T01:10:44;4.10;1.00
5118;DHT22;2578;51.622;7.046;2023-03-07T01:13:10;4.10;1.00
5118;DHT22;2578;51.622;7.046;2023-03-07T01:15:37;4.10;1.00
5118;DHT22;2578;51.622;7.046;2023-03-07T01:18:07;4.10;1.00
5118;DHT22;2578;51.622;7.046;2023-03-07T01:20:34;4.10;1.00
5118;DHT22;2578;51.622;7.046;2023-03-07T01:23:00;4.10;1.00
5118;DHT22;2578;51.622;7.046;2023-03-07T01:25:26;4.10;1.00
5118;DHT22;2578;51.622;7.046;2023-03-07T01:27:52;4.10;1.00
5118;DHT22;2578;51.622;7.046;2023-03-07T01:30:20;4.10;1.00
5118;DHT22;2578;51.622;7.046;2023-03-07T01:32:45;4.10;1.00
5118;DHT22;2578;51.622;7.046;2023-03-07T01:35:13;4.10;1.00
5118;DHT22;2578;51.622;7.046;2023-03-07T01:37:39;4.10;1.00
5118;DHT22;2578;51.622;7.046;2023-03-07T01:40:05;4.10;1.00
5118;DHT22;2578;51.622;7.046;2023-03-07T01:42:31;4.10;1.00
5118;DHT22;2578;51.622;7.046;2023-03-07T01:44:59;3.30;1.00
5118;DHT22;2578;51.622;7.046;2023-03-07T01:47:25;4.10;1.00
5118;DHT22;2578;51.622;7.046;2023-03-07T01:49:51;4.20;1.00
5118;DHT22;2578;51.622;7.046;2023-03-07T01:52:21;4.40;1.00
5118;DHT22;2578;51.622;7.046;2023-03-07T01:54:51;4.20;1.00
5118;DHT22;2578;51.622;7.046;2023-03-07T01:57:20;4.20;1.00
5118;DHT22;2578;51.622;7.046;2023-03-07T01:59:51;4.20;1.00
5118;DHT22;2578;51.622;7.046;2023-03-07T02:02:20;4.20;3.30
5118;DHT22;2578;51.622;7.046;2023-03-07T02:05:09;4.20;1.00
5118;DHT22;2578;51.622;7.046;2023-03-07T02:07:41;4.20;1.00
5118;DHT22;2578;51.622;7.046;2023-03-07T02:10:10;4.10;1.00
5118;DHT22;2578;51.622;7.046;2023-03-07T02:12:37;4.10;1.00
5118;DHT22;2578;51.622;7.046;2023-03-07T02:15:03;4.10;1.00
5118;DHT22;2578;51.622;7.046;2023-03-07T02:17:30;4.10;1.00
5118;DHT22;2578;51.622;7.046;2023-03-07T02:22:39;4.70;1.00
5118;DHT22;2578;51.622;7.046;2023-03-07T02:28:05;4.00;1.00
5118;DHT22;2578;51.622;7.046;2023-03-07T02:30:35;4.00;1.00
5118;DHT22;2578;51.622;7.046;2023-03-07T02:33:00;4.00;1.00
5118;DHT22;2578;51.622;7.046;2023-03-07T02:35:26;4.00;1.00
5118;DHT22;2578;51.622;7.046;2023-03-07T02:37:54;4.00;1.00
5118;DHT22;2578;51.622;7.046;2023-03-07T02:40:23;4.00;1.00
5118;DHT22;2578;51.622;7.046;2023-03-07T02:42:52;4.00;1.00
5118;DHT22;2578;51.622;7.046;2023-03-07T02:45:20;4.00;1.00
5118;DHT22;2578;51.622;7.046;2023-03-07T02:47:46;4.00;1.00
5118;DHT22;2578;51.622;7.046;2023-03-07T02:50:12;2.30;1.00
5118;DHT22;2578;51.622;7.046;2023-03-07T02:52:38;4.00;1.00
5118;DHT22;2578;51.622;7.046;2023-03-07T02:55:05;4.10;1.00
5118;DHT22;2578;51.622;7.046;2023-03-07T02:57:32;4.10;1.00
5118;DHT22;2578;51.622;7.046;2023-03-07T02:59:58;4.10;1.00
5118;DHT22;2578;51.622;7.046;2023-03-07T03:02:24;4.10;99.90
5118;DHT22;2578;51.622;7.046;2023-03-07T03:04:50;4.20;99.90
5118;DHT22;2578;51.622;7.046;2023-03-07T03:07:16;4.20;99.90
5118;DHT22;2578;51.622;7.046;2023-03-07T03:09:42;2.90;99.90
5118;DHT22;2578;51.622;7.046;2023-03-07T03:12:07;4.20;99.90
5118;DHT22;2578;51.622;7.046;2023-03-07T03:14:33;4.30;99.90
5118;DHT22;2578;51.622;7.046;2023-03-07T03:16:59;4.30;99.90
5118;DHT22;2578;51.622;7.046;2023-03-07T03:19:24;4.30;99.90
5118;DHT22;2578;51.622;7.046;2023-03-07T03:21:50;5.50;99.90
5118;DHT22;2578;51.622;7.046;2023-03-07T03:24:16;4.30;99.90
5118;DHT22;2578;51.622;7.046;2023-03-07T03:26:41;4.30;99.90
5118;DHT22;2578;51.622;7.046;2023-03-07T03:29:07;4.40;99.90
5118;DHT22;2578;51.622;7.046;2023-03-07T03:31:34;4.40;99.90
5118;DHT22;2578;51.622;7.046;2023-03-07T03:33:59;4.30;99.90
5118;DHT22;2578;51.622;7.046;2023-03-07T03:36:26;4.30;99.90
5118;DHT22;2578;51.622;7.046;2023-03-07T03:38:53;4.30;99.90
5118;DHT22;2578;51.622;7.046;2023-03-07T03:41:19;4.30;99.90
5118;DHT22;2578;51.622;7.046;2023-03-07T03:43:45;4.30;99.90
5118;DHT22;2578;51.622;7.046;2023-03-07T03:46:10;4.30;99.90
5118;DHT22;2578;51.622;7.046;2023-03-07T03:48:36;4.20;99.90
5118;DHT22;2578;51.622;7.046;2023-03-07T03:51:04;4.30;99.90
5118;DHT22;2578;51.622;7.046;2023-03-07T03:53:31;4.10;99.90
5118;DHT22;2578;51.622;7.046;2023-03-07T03:56:01;4.00;99.90
5118;DHT22;2578;51.622;7.046;2023-03-07T03:58:28;4.00;99.90
5118;DHT22;2578;51.622;7.046;2023-03-07T04:00:53;4.00;99.90
5118;DHT22;2578;51.622;7.046;2023-03-07T04:03:19;3.90;1.00
5118;DHT22;2578;51.622;7.046;2023-03-07T04:05:44;3.80;1.00
5118;DHT22;2578;51.622;7.046;2023-03-07T04:08:10;4.50;1.00
5118;DHT22;2578;51.622;7.046;2023-03-07T04:10:35;3.70;1.00
5118;DHT22;2578;51.622;7.046;2023-03-07T04:13:01;3.70;1.00
5118;DHT22;2578;51.622;7.046;2023-03-07T04:15:27;3.70;1.00
5118;DHT22;2578;51.622;7.046;2023-03-07T04:17:52;3.70;1.00
5118;DHT22;2578;51.622;7.046;2023-03-07T04:20:18;3.50;1.00
5118;DHT22;2578;51.622;7.046;2023-03-07T04:22:43;3.50;1.00
5118;DHT22;2578;51.622;7.046;2023-03-07T04:25:09;3.50;1.00
5118;DHT22;2578;51.622;7.046;2023-03-07T04:27:35;3.50;1.00
5118;DHT22;2578;51.622;7.046;2023-03-07T04:30:00;3.50;1.00
5118;DHT22;2578;51.622;7.046;2023-03-07T04:32:26;3.50;1.00
5118;DHT22;2578;51.622;7.046;2023-03-07T04:34:52;3.50;1.00
5118;DHT22;2578;51.622;7.046;2023-03-07T04:37:17;3.50;1.00
5118;DHT22;2578;51.622;7.046;2023-03-07T04:39:43;3.50;1.00
5118;DHT22;2578;51.622;7.046;2023-03-07T04:42:08;3.50;1.00
5118;DHT22;2578;51.622;7.046;2023-03-07T04:44:34;3.40;1.00
5118;DHT22;2578;51.622;7.046;2023-03-07T04:46:59;3.40;1.00
5118;DHT22;2578;51.622;7.046;2023-03-07T04:49:25;3.40;1.00
5118;DHT22;2578;51.622;7.046;2023-03-07T04:51:51;3.40;1.00
5118;DHT22;2578;51.622;7.046;2023-03-07T04:54:16;3.40;1.00
5118;DHT22;2578;51.622;7.046;2023-03-07T04:56:42;3.40;1.00
5118;DHT22;2578;51.622;7.046;2023-03-07T04:59:08;3.40;1.00
5118;DHT22;2578;51.622;7.046;2023-03-07T05:01:33;3.40;1.00
5118;DHT22;2578;51.622;7.046;2023-03-07T05:03:59;3.30;1.00
5118;DHT22;2578;51.622;7.046;2023-03-07T05:06:26;4.30;1.00
5118;DHT22;2578;51.622;7.046;2023-03-07T05:08:51;3.30;1.00
5118;DHT22;2578;51.622;7.046;2023-03-07T05:11:17;3.30;1.00
5118;DHT22;2578;51.622;7.046;2023-03-07T05:13:43;3.30;1.00
5118;DHT22;2578;51.622;7.046;2023-03-07T05:16:08;3.30;1.00
5118;DHT22;2578;51.622;7.046;2023-03-07T05:18:34;3.30;1.00
5118;DHT22;2578;51.622;7.046;2023-03-07T05:20:59;3.30;1.00
5118;DHT22;2578;51.622;7.046;2023-03-07T05:23:25;3.20;1.00
5118;DHT22;2578;51.622;7.046;2023-03-07T05:25:51;3.20;1.00
5118;DHT22;2578;51.622;7.046;2023-03-07T05:28:17;3.20;1.00
5118;DHT22;2578;51.622;7.046;2023-03-07T05:30:44;3.20;1.00
5118;DHT22;2578;51.622;7.046;2023-03-07T05:33:10;3.30;1.00
5118;DHT22;2578;51.622;7.046;2023-03-07T05:35:35;3.20;1.00
5118;DHT22;2578;51.622;7.046;2023-03-07T05:38:01;3.20;1.00
5118;DHT22;2578;51.622;7.046;2023-03-07T05:40:27;3.30;1.00
5118;DHT22;2578;51.622;7.046;2023-03-07T05:42:53;3.30;1.00
5118;DHT22;2578;51.622;7.046;2023-03-07T05:45:18;3.30;1.00
5118;DHT22;2578;51.622;7.046;2023-03-07T05:47:46;3.30;1.00
5118;DHT22;2578;51.622;7.046;2023-03-07T05:50:11;3.30;1.00
5118;DHT22;2578;51.622;7.046;2023-03-07T05:52:37;3.30;1.00
5118;DHT22;2578;51.622;7.046;2023-03-07T05:55:05;3.30;89.10
5118;DHT22;2578;51.622;7.046;2023-03-07T05:57:30;3.30;99.90
5118;DHT22;2578;51.622;7.046;2023-03-07T05:59:56;3.30;99.90
5118;DHT22;2578;51.622;7.046;2023-03-07T06:02:21;3.90;99.90
5118;DHT22;2578;51.622;7.046;2023-03-07T06:04:47;3.40;99.90
5118;DHT22;2578;51.622;7.046;2023-03-07T06:07:13;3.40;99.90
5118;DHT22;2578;51.622;7.046;2023-03-07T06:09:38;3.40;99.90
5118;DHT22;2578;51.622;7.046;2023-03-07T06:12:04;3.40;99.90
5118;DHT22;2578;51.622;7.046;2023-03-07T06:14:31;3.40;99.90
5118;DHT22;2578;51.622;7.046;2023-03-07T06:16:56;3.40;99.90
5118;DHT22;2578;51.622;7.046;2023-03-07T06:19:22;3.40;1.00
5118;DHT22;2578;51.622;7.046;2023-03-07T06:21:48;3.40;1.00
5118;DHT22;2578;51.622;7.046;2023-03-07T06:24:13;3.40;50.20
5118;DHT22;2578;51.622;7.046;2023-03-07T06:26:39;3.70;95.50
5118;DHT22;2578;51.622;7.046;2023-03-07T06:29:04;3.40;99.90
5118;DHT22;2578;51.622;7.046;2023-03-07T06:31:30;3.40;99.90
5118;DHT22;2578;51.622;7.046;2023-03-07T06:33:56;3.50;99.90
5118;DHT22;2578;51.622;7.046;2023-03-07T06:36:21;3.50;99.90
5118;DHT22;2578;51.622;7.046;2023-03-07T06:38:47;3.50;99.90
5118;DHT22;2578;51.622;7.046;2023-03-07T06:41:13;3.60;99.90
5118;DHT22;2578;51.622;7.046;2023-03-07T06:43:38;3.60;99.90
5118;DHT22;2578;51.622;7.046;2023-03-07T06:46:05;3.60;99.90
5118;DHT22;2578;51.622;7.046;2023-03-07T06:48:30;3.70;99.90
5118;DHT22;2578;51.622;7.046;2023-03-07T06:50:58;3.70;99.90
5118;DHT22;2578;51.622;7.046;2023-03-07T06:53:23;3.70;99.90
5118;DHT22;2578;51.622;7.046;2023-03-07T06:55:49;3.80;99.90
5118;DHT22;2578;51.622;7.046;2023-03-07T06:58:16;3.80;99.90
5118;DHT22;2578;51.622;7.046;2023-03-07T07:00:41;3.80;99.90
5118;DHT22;2578;51.622;7.046;2023-03-07T07:03:14;3.80;99.90
5118;DHT22;2578;51.622;7.046;2023-03-07T07:05:40;3.80;99.90
5118;DHT22;2578;51.622;7.046;2023-03-07T07:08:06;3.80;99.90
5118;DHT22;2578;51.622;7.046;2023-03-07T07:10:32;3.80;99.90
5118;DHT22;2578;51.622;7.046;2023-03-07T07:12:57;3.80;99.90
5118;DHT22;2578;51.622;7.046;2023-03-07T07:15:23;3.80;99.90
5118;DHT22;2578;51.622;7.046;2023-03-07T07:17:50;3.80;99.90
5118;DHT22;2578;51.622;7.046;2023-03-07T07:20:17;3.80;99.90
5118;DHT22;2578;51.622;7.046;2023-03-07T07:22:42;3.80;99.90
5118;DHT22;2578;51.622;7.046;2023-03-07T07:25:08;3.80;99.90
5118;DHT22;2578;51.622;7.046;2023-03-07T07:27:34;3.80;99.90
5118;DHT22;2578;51.622;7.046;2023-03-07T07:30:01;3.80;99.90
5118;DHT22;2578;51.622;7.046;2023-03-07T07:32:27;3.70;99.90
5118;DHT22;2578;51.622;7.046;2023-03-07T07:34:53;3.50;99.90
5118;DHT22;2578;51.622;7.046;2023-03-07T07:37:18;3.40;99.90
5118;DHT22;2578;51.622;7.046;2023-03-07T07:39:44;3.30;99.90
5118;DHT22;2578;51.622;7.046;2023-03-07T07:42:10;3.30;99.90
5118;DHT22;2578;51.622;7.046;2023-03-07T07:44:36;3.30;99.90
5118;DHT22;2578;51.622;7.046;2023-03-07T07:47:02;3.30;99.90
5118;DHT22;2578;51.622;7.046;2023-03-07T07:49:27;3.40;99.90
5118;DHT22;2578;51.622;7.046;2023-03-07T07:51:54;3.20;99.90
5118;DHT22;2578;51.622;7.046;2023-03-07T07:54:19;3.20;99.90
5118;DHT22;2578;51.622;7.046;2023-03-07T07:56:45;3.10;99.90
5118;DHT22;2578;51.622;7.046;2023-03-07T07:59:11;3.10;99.90
5118;DHT22;2578;51.622;7.046;2023-03-07T08:01:37;3.10;99.90
5118;DHT22;2578;51.622;7.046;2023-03-07T08:04:03;3.10;99.90
5118;DHT22;2578;51.622;7.046;2023-03-07T08:06:29;3.20;99.90
5118;DHT22;2578;51.622;7.046;2023-03-07T08:08:55;2.90;99.90
5118;DHT22;2578;51.622;7.046;2023-03-07T08:11:21;2.90;99.90
5118;DHT22;2578;51.622;7.046;2023-03-07T08:13:47;2.90;99.90
5118;DHT22;2578;51.622;7.046;2023-03-07T08:16:18;2.80;99.90
5118;DHT22;2578;51.622;7.046;2023-03-07T08:18:52;2.80;99.90
5118;DHT22;2578;51.622;7.046;2023-03-07T08:21:18;2.70;99.90
5118;DHT22;2578;51.622;7.046;2023-03-07T08:23:44;2.80;99.90
5118;DHT22;2578;51.622;7.046;2023-03-07T08:26:10;2.80;99.90
5118;DHT22;2578;51.622;7.046;2023-03-07T08:28:38;2.80;99.90
5118;DHT22;2578;51.622;7.046;2023-03-07T08:31:15;2.90;99.90
5118;DHT22;2578;51.622;7.046;2023-03-07T08:33:42;2.80;99.90
5118;DHT22;2578;51.622;7.046;2023-03-07T08:36:08;2.80;99.90
5118;DHT22;2578;51.622;7.046;2023-03-07T08:38:34;2.80;99.90
5118;DHT22;2578;51.622;7.046;2023-03-07T08:41:01;2.80;99.90
5118;DHT22;2578;51.622;7.046;2023-03-07T08:43:28;3.10;99.90
5118;DHT22;2578;51.622;7.046;2023-03-07T08:45:55;2.70;99.90
5118;DHT22;2578;51.622;7.046;2023-03-07T08:48:21;2.60;99.90
5118;DHT22;2578;51.622;7.046;2023-03-07T08:50:47;2.50;99.90
5118;DHT22;2578;51.622;7.046;2023-03-07T08:53:14;2.40;99.90
5118;DHT22;2578;51.622;7.046;2023-03-07T08:55:40;2.30;99.90
5118;DHT22;2578;51.622;7.046;2023-03-07T08:58:06;3.70;99.90
5118;DHT22;2578;51.622;7.046;2023-03-07T09:00:32;2.30;99.90
5118;DHT22;2578;51.622;7.046;2023-03-07T09:02:57;2.30;99.90
5118;DHT22;2578;51.622;7.046;2023-03-07T09:05:24;2.20;99.90
5118;DHT22;2578;51.622;7.046;2023-03-07T09:07:49;2.00;99.90
5118;DHT22;2578;51.622;7.046;2023-03-07T09:10:16;1.90;99.90
5118;DHT22;2578;51.622;7.046;2023-03-07T09:12:43;2.00;99.90
5118;DHT22;2578;51.622;7.046;2023-03-07T09:15:09;1.90;99.90
5118;DHT22;2578;51.622;7.046;2023-03-07T09:17:35;1.80;99.90
5118;DHT22;2578;51.622;7.046;2023-03-07T09:20:00;1.90;99.90
5118;DHT22;2578;51.622;7.046;2023-03-07T09:22:26;1.90;99.90
5118;DHT22;2578;51.622;7.046;2023-03-07T09:24:55;2.10;99.90
5118;DHT22;2578;51.622;7.046;2023-03-07T09:27:20;2.00;99.90
5118;DHT22;2578;51.622;7.046;2023-03-07T09:29:46;2.00;99.90
5118;DHT22;2578;51.622;7.046;2023-03-07T09:32:12;2.00;99.90
5118;DHT22;2578;51.622;7.046;2023-03-07T09:34:38;1.90;99.90
5118;DHT22;2578;51.622;7.046;2023-03-07T09:37:03;1.90;99.90
5118;DHT22;2578;51.622;7.046;2023-03-07T09:39:30;1.80;99.90
5118;DHT22;2578;51.622;7.046;2023-03-07T09:42:03;1.60;99.90
5118;DHT22;2578;51.622;7.046;2023-03-07T09:50:38;1.40;99.90
5118;DHT22;2578;51.622;7.046;2023-03-07T09:53:05;1.40;99.90
5118;DHT22;2578;51.622;7.046;2023-03-07T09:55:36;1.40;99.90
5118;DHT22;2578;51.622;7.046;2023-03-07T09:58:07;1.40;99.90
5118;DHT22;2578;51.622;7.046;2023-03-07T10:00:40;1.40;99.90
5118;DHT22;2578;51.622;7.046;2023-03-07T10:05:50;1.60;99.90
5118;DHT22;2578;51.622;7.046;2023-03-07T10:08:31;1.70;99.90
5118;DHT22;2578;51.622;7.046;2023-03-07T10:29:26;1.90;99.90
5118;DHT22;2578;51.622;7.046;2023-03-07T10:32:11;1.90;99.90
5118;DHT22;2578;51.622;7.046;2023-03-07T10:34:38;1.90;99.90
5118;DHT22;2578;51.622;7.046;2023-03-07T10:37:21;2.30;99.90
5118;DHT22;2578;51.622;7.046;2023-03-07T10:39:55;2.00;99.90
5118;DHT22;2578;51.622;7.046;2023-03-07T10:42:23;2.00;99.90
5118;DHT22;2578;51.622;7.046;2023-03-07T10:44:50;2.00;99.90
5118;DHT22;2578;51.622;7.046;2023-03-07T10:47:22;2.30;99.90
5118;DHT22;2578;51.622;7.046;2023-03-07T10:49:50;1.90;99.90
5118;DHT22;2578;51.622;7.046;2023-03-07T10:52:28;1.80;99.90
5118;DHT22;2578;51.622;7.046;2023-03-07T10:58:18;1.70;99.90
5118;DHT22;2578;51.622;7.046;2023-03-07T11:01:18;1.80;99.90
5118;DHT22;2578;51.622;7.046;2023-03-07T11:03:56;1.90;99.90
5118;DHT22;2578;51.622;7.046;2023-03-07T11:08:53;1.80;99.90
5118;DHT22;2578;51.622;7.046;2023-03-07T11:11:28;1.80;99.90
5118;DHT22;2578;51.622;7.046;2023-03-07T11:14:06;1.80;99.90
5118;DHT22;2578;51.622;7.046;2023-03-07T11:16:49;2.00;99.90
5118;DHT22;2578;51.622;7.046;2023-03-07T11:21:58;2.20;99.90
5118;DHT22;2578;51.622;7.046;2023-03-07T11:24:38;2.30;99.90
5118;DHT22;2578;51.622;7.046;2023-03-07T11:27:05;2.40;99.90
5118;DHT22;2578;51.622;7.046;2023-03-07T11:29:30;2.60;99.90
5118;DHT22;2578;51.622;7.046;2023-03-07T11:37:23;2.60;99.90
5118;DHT22;2578;51.622;7.046;2023-03-07T11:42:43;2.50;99.90
5118;DHT22;2578;51.622;7.046;2023-03-07T11:45:41;2.50;99.90
5118;DHT22;2578;51.622;7.046;2023-03-07T11:50:56;2.40;99.90
5118;DHT22;2578;51.622;7.046;2023-03-07T11:53:41;2.40;99.90
5118;DHT22;2578;51.622;7.046;2023-03-07T12:12:07;2.90;99.90
5118;DHT22;2578;51.622;7.046;2023-03-07T12:17:52;3.20;99.90
5118;DHT22;2578;51.622;7.046;2023-03-07T12:23:18;3.10;99.90
5118;DHT22;2578;51.622;7.046;2023-03-07T12:25:50;3.10;99.90
5118;DHT22;2578;51.622;7.046;2023-03-07T12:31:14;3.20;99.90
5118;DHT22;2578;51.622;7.046;2023-03-07T12:34:08;3.10;99.90
5118;DHT22;2578;51.622;7.046;2023-03-07T12:39:18;2.90;99.90
5118;DHT22;2578;51.622;7.046;2023-03-07T12:46:57;3.40;99.90
5118;DHT22;2578;51.622;7.046;2023-03-07T12:52:30;3.40;99.90
5118;DHT22;2578;51.622;7.046;2023-03-07T12:57:41;3.20;99.90
5118;DHT22;2578;51.622;7.046;2023-03-07T13:00:10;3.30;99.90
5118;DHT22;2578;51.622;7.046;2023-03-07T13:02:42;3.40;99.90
5118;DHT22;2578;51.622;7.046;2023-03-07T13:05:18;3.30;99.90
5118;DHT22;2578;51.622;7.046;2023-03-07T13:07:45;3.40;99.90
5118;DHT22;2578;51.622;7.046;2023-03-07T13:10:20;3.30;99.90
5118;DHT22;2578;51.622;7.046;2023-03-07T13:12:47;3.40;99.90
5118;DHT22;2578;51.622;7.046;2023-03-07T13:27:49;3.30;99.90
5118;DHT22;2578;51.622;7.046;2023-03-07T13:30:24;3.30;99.90
5118;DHT22;2578;51.622;7.046;2023-03-07T13:46:01;3.40;99.90
5118;DHT22;2578;51.622;7.046;2023-03-07T14:01:24;3.70;99.90
5118;DHT22;2578;51.622;7.046;2023-03-07T14:03:53;4.60;99.90
5118;DHT22;2578;51.622;7.046;2023-03-07T14:06:46;3.60;99.90
5118;DHT22;2578;51.622;7.046;2023-03-07T14:09:20;3.60;99.90
5118;DHT22;2578;51.622;7.046;2023-03-07T14:20:23;3.30;99.90
5118;DHT22;2578;51.622;7.046;2023-03-07T14:25:45;3.40;99.90
5118;DHT22;2578;51.622;7.046;2023-03-07T14:28:26;3.40;99.90
5118;DHT22;2578;51.622;7.046;2023-03-07T14:30:57;3.40;99.90
5118;DHT22;2578;51.622;7.046;2023-03-07T14:33:38;3.40;99.90
5118;DHT22;2578;51.622;7.046;2023-03-07T14:36:20;3.60;99.90
5118;DHT22;2578;51.622;7.046;2023-03-07T14:38:47;3.70;99.90
5118;DHT22;2578;51.622;7.046;2023-03-07T14:51:39;3.50;99.90
5118;DHT22;2578;51.622;7.046;2023-03-07T14:54:13;3.50;99.90
5118;DHT22;2578;51.622;7.046;2023-03-07T14:56:39;3.40;99.90
5118;DHT22;2578;51.622;7.046;2023-03-07T14:59:05;3.40;99.90
5118;DHT22;2578;51.622;7.046;2023-03-07T15:01:35;3.50;99.90
5118;DHT22;2578;51.622;7.046;2023-03-07T15:04:07;3.50;99.90
5118;DHT22;2578;51.622;7.046;2023-03-07T15:06:44;3.30;99.90
5118;DHT22;2578;51.622;7.046;2023-03-07T15:09:10;3.20;99.90
5118;DHT22;2578;51.622;7.046;2023-03-07T15:11:37;3.30;99.90
5118;DHT22;2578;51.622;7.046;2023-03-07T15:16:56;3.10;99.90
5118;DHT22;2578;51.622;7.046;2023-03-07T15:19:37;3.10;99.90
5118;DHT22;2578;51.622;7.046;2023-03-07T15:22:07;3.00;99.90
5118;DHT22;2578;51.622;7.046;2023-03-07T15:24:42;3.20;99.90
5118;DHT22;2578;51.622;7.046;2023-03-07T15:27:12;3.10;99.90
5118;DHT22;2578;51.622;7.046;2023-03-07T15:29:46;3.10;99.90
5118;DHT22;2578;51.622;7.046;2023-03-07T15:32:38;3.20;99.90
5118;DHT22;2578;51.622;7.046;2023-03-07T15:37:34;3.30;99.90
5118;DHT22;2578;51.622;7.046;2023-03-07T15:40:20;3.90;99.90
5118;DHT22;2578;51.622;7.046;2023-03-07T15:42:52;3.20;99.90
5118;DHT22;2578;51.622;7.046;2023-03-07T15:45:33;3.10;99.90
5118;DHT22;2578;51.622;7.046;2023-03-07T15:48:07;3.00;99.90
5118;DHT22;2578;51.622;7.046;2023-03-07T15:50:33;2.80;99.90
5118;DHT22;2578;51.622;7.046;2023-03-07T15:53:23;2.70;99.90
5118;DHT22;2578;51.622;7.046;2023-03-07T15:55:55;2.60;99.90
5118;DHT22;2578;51.622;7.046;2023-03-07T15:58:21;2.50;99.90
5118;DHT22;2578;51.622;7.046;2023-03-07T16:00:47;2.50;99.90
5118;DHT22;2578;51.622;7.046;2023-03-07T16:03:21;2.40;99.90
5118;DHT22;2578;51.622;7.046;2023-03-07T16:05:47;2.30;99.90
5118;DHT22;2578;51.622;7.046;2023-03-07T16:08:16;2.30;99.90
5118;DHT22;2578;51.622;7.046;2023-03-07T16:13:16;2.30;99.90
5118;DHT22;2578;51.622;7.046;2023-03-07T16:15:42;2.30;99.90
5118;DHT22;2578;51.622;7.046;2023-03-07T16:18:17;2.30;99.90
5118;DHT22;2578;51.622;7.046;2023-03-07T16:20:44;2.20;99.90
5118;DHT22;2578;51.622;7.046;2023-03-07T16:23:11;2.20;99.90
5118;DHT22;2578;51.622;7.046;2023-03-07T16:25:38;2.20;99.90
5118;DHT22;2578;51.622;7.046;2023-03-07T16:28:03;2.90;99.90
5118;DHT22;2578;51.622;7.046;2023-03-07T16:30:31;2.10;99.90
5118;DHT22;2578;51.622;7.046;2023-03-07T16:32:57;2.10;99.90
5118;DHT22;2578;51.622;7.046;2023-03-07T16:35:25;2.10;99.90
5118;DHT22;2578;51.622;7.046;2023-03-07T16:37:51;2.50;99.90
5118;DHT22;2578;51.622;7.046;2023-03-07T16:40:18;2.20;99.90
5118;DHT22;2578;51.622;7.046;2023-03-07T16:42:46;2.00;99.90
5118;DHT22;2578;51.622;7.046;2023-03-07T16:45:25;2.00;99.90
5118;DHT22;2578;51.622;7.046;2023-03-07T16:47:53;2.00;99.90
5118;DHT22;2578;51.622;7.046;2023-03-07T16:50:22;2.00;99.90
5118;DHT22;2578;51.622;7.046;2023-03-07T16:52:47;2.00;99.90
5118;DHT22;2578;51.622;7.046;2023-03-07T16:55:14;2.00;99.90
5118;DHT22;2578;51.622;7.046;2023-03-07T16:57:42;2.00;99.90
5118;DHT22;2578;51.622;7.046;2023-03-07T17:00:15;2.00;99.90
5118;DHT22;2578;51.622;7.046;2023-03-07T17:02:41;2.00;99.90
5118;DHT22;2578;51.622;7.046;2023-03-07T17:05:18;2.00;99.90
5118;DHT22;2578;51.622;7.046;2023-03-07T17:07:45;2.00;99.90
5118;DHT22;2578;51.622;7.046;2023-03-07T17:10:11;2.00;99.90
5118;DHT22;2578;51.622;7.046;2023-03-07T17:12:37;2.00;99.90
5118;DHT22;2578;51.622;7.046;2023-03-07T17:15:04;2.00;99.90
5118;DHT22;2578;51.622;7.046;2023-03-07T17:17:33;2.00;99.90
5118;DHT22;2578;51.622;7.046;2023-03-07T17:19:59;2.00;99.90
5118;DHT22;2578;51.622;7.046;2023-03-07T17:22:25;2.20;99.90
5118;DHT22;2578;51.622;7.046;2023-03-07T17:24:50;1.90;99.90
5118;DHT22;2578;51.622;7.046;2023-03-07T17:27:17;1.90;99.90
5118;DHT22;2578;51.622;7.046;2023-03-07T17:29:46;1.90;99.90
5118;DHT22;2578;51.622;7.046;2023-03-07T17:32:14;1.90;99.90
5118;DHT22;2578;51.622;7.046;2023-03-07T17:34:40;1.80;99.90
5118;DHT22;2578;51.622;7.046;2023-03-07T17:37:06;1.80;99.90
5118;DHT22;2578;51.622;7.046;2023-03-07T17:39:33;1.80;99.90
5118;DHT22;2578;51.622;7.046;2023-03-07T17:41:59;1.70;99.90
5118;DHT22;2578;51.622;7.046;2023-03-07T17:44:25;2.20;99.90
5118;DHT22;2578;51.622;7.046;2023-03-07T17:46:52;1.80;99.90
5118;DHT22;2578;51.622;7.046;2023-03-07T17:49:19;1.80;99.90
5118;DHT22;2578;51.622;7.046;2023-03-07T17:51:44;1.70;99.90
5118;DHT22;2578;51.622;7.046;2023-03-07T17:54:10;1.60;99.90
5118;DHT22;2578;51.622;7.046;2023-03-07T17:56:36;1.60;99.90
5118;DHT22;2578;51.622;7.046;2023-03-07T17:59:03;1.60;99.90
5118;DHT22;2578;51.622;7.046;2023-03-07T18:01:30;1.50;99.90
5118;DHT22;2578;51.622;7.046;2023-03-07T18:03:56;1.50;99.90
5118;DHT22;2578;51.622;7.046;2023-03-07T18:06:22;1.50;99.90
5118;DHT22;2578;51.622;7.046;2023-03-07T18:08:48;1.50;99.90
5118;DHT22;2578;51.622;7.046;2023-03-07T18:11:14;1.60;99.90
5118;DHT22;2578;51.622;7.046;2023-03-07T18:13:40;1.50;99.90
5118;DHT22;2578;51.622;7.046;2023-03-07T18:16:07;1.40;99.90
5118;DHT22;2578;51.622;7.046;2023-03-07T18:18:35;1.40;99.90
5118;DHT22;2578;51.622;7.046;2023-03-07T18:21:03;1.40;99.90
5118;DHT22;2578;51.622;7.046;2023-03-07T18:23:30;1.40;99.90
5118;DHT22;2578;51.622;7.046;2023-03-07T18:26:02;1.40;99.90
5118;DHT22;2578;51.622;7.046;2023-03-07T18:28:28;1.30;99.90
5118;DHT22;2578;51.622;7.046;2023-03-07T18:31:06;1.30;99.90
5118;DHT22;2578;51.622;7.046;2023-03-07T18:33:33;1.30;99.90
5118;DHT22;2578;51.622;7.046;2023-03-07T18:35:59;1.40;99.90
5118;DHT22;2578;51.622;7.046;2023-03-07T18:38:26;1.20;99.90
5118;DHT22;2578;51.622;7.046;2023-03-07T18:41:05;1.20;99.90
5118;DHT22;2578;51.622;7.046;2023-03-07T18:43:31;1.20;99.90
5118;DHT22;2578;51.622;7.046;2023-03-07T18:45:57;1.20;99.90
5118;DHT22;2578;51.622;7.046;2023-03-07T18:48:22;1.20;99.90
5118;DHT22;2578;51.622;7.046;2023-03-07T18:51:03;1.10;99.90
5118;DHT22;2578;51.622;7.046;2023-03-07T18:53:29;1.10;99.90
5118;DHT22;2578;51.622;7.046;2023-03-07T18:55:55;1.10;99.90
5118;DHT22;2578;51.622;7.046;2023-03-07T18:58:21;1.10;99.90
5118;DHT22;2578;51.622;7.046;2023-03-07T19:00:48;1.10;99.90
5118;DHT22;2578;51.622;7.046;2023-03-07T19:03:14;1.10;99.90
5118;DHT22;2578;51.622;7.046;2023-03-07T19:05:48;1.10;99.90
5118;DHT22;2578;51.622;7.046;2023-03-07T19:08:15;1.50;99.90
5118;DHT22;2578;51.622;7.046;2023-03-07T19:10:41;1.00;99.90